Governador Eugenio Barros, Brazil
Current Conditions -  °F | °C
As of 9:00 PM on Saturday 22 Nov 2014 (Local Time) from SBTE Reporting Station
Clear Clear  
Wind Chill: 86°   Ceiling: Unl
Heat Index: 92°   Visibility: 6mi
Dew Point: 72°   Wind: 0mph
Humidity: 62%   Direction: NA
Pressure: 29.8"   Gusts: NA
Location:  5.32°S, 44.25°W
Report Text: SBTE 230000Z 00000KT CAVOK 30/22 Q1009
Loading
Personal Weather Stations






























Interactive Weather Map New forecast layout! Learn more

10-Day Weather Forecast

Advertisements
Track Severe Weather on mobile